sensor_id;sensor_type;location;lat;lon;timestamp;temperature;humidity
13496;DHT22;6820;49.374;8.452;2024-01-15T00:02:57;-0.55;99.99
13496;DHT22;6820;49.374;8.452;2024-01-15T00:06:58;-0.55;99.99
13496;DHT22;6820;49.374;8.452;2024-01-15T00:11:00;-0.53;99.99
13496;DHT22;6820;49.374;8.452;2024-01-15T00:15:02;-0.53;99.99
13496;DHT22;6820;49.374;8.452;2024-01-15T00:19:04;-0.53;99.99
13496;DHT22;6820;49.374;8.452;2024-01-15T00:23:06;-0.55;99.99
13496;DHT22;6820;49.374;8.452;2024-01-15T00:27:08;-0.58;99.99
13496;DHT22;6820;49.374;8.452;2024-01-15T00:31:10;-0.60;99.99
13496;DHT22;6820;49.374;8.452;2024-01-15T00:35:12;-0.59;99.99
13496;DHT22;6820;49.374;8.452;2024-01-15T00:39:13;-0.62;99.99
13496;DHT22;6820;49.374;8.452;2024-01-15T00:43:15;-0.63;99.99
13496;DHT22;6820;49.374;8.452;2024-01-15T00:47:19;-0.63;99.99
13496;DHT22;6820;49.374;8.452;2024-01-15T00:51:21;-0.68;99.99
13496;DHT22;6820;49.374;8.452;2024-01-15T00:55:22;-0.70;99.99
13496;DHT22;6820;49.374;8.452;2024-01-15T00:59:24;-0.67;99.99
13496;DHT22;6820;49.374;8.452;2024-01-15T01:03:26;-0.65;99.99
13496;DHT22;6820;49.374;8.452;2024-01-15T01:07:27;-0.65;99.99
13496;DHT22;6820;49.374;8.452;2024-01-15T01:11:29;-0.65;99.99
13496;DHT22;6820;49.374;8.452;2024-01-15T01:15:31;-0.65;99.99
13496;DHT22;6820;49.374;8.452;2024-01-15T01:19:33;-0.68;99.99
13496;DHT22;6820;49.374;8.452;2024-01-15T01:23:35;-0.70;99.99
13496;DHT22;6820;49.374;8.452;2024-01-15T01:27:36;-0.68;99.99
13496;DHT22;6820;49.374;8.452;2024-01-15T01:31:44;-0.65;99.99
13496;DHT22;6820;49.374;8.452;2024-01-15T01:35:46;-0.63;99.99
13496;DHT22;6820;49.374;8.452;2024-01-15T01:39:48;-0.62;99.99
13496;DHT22;6820;49.374;8.452;2024-01-15T01:43:50;-0.60;99.99
13496;DHT22;6820;49.374;8.452;2024-01-15T01:47:52;-0.60;99.99
13496;DHT22;6820;49.374;8.452;2024-01-15T01:51:57;-0.60;99.99
13496;DHT22;6820;49.374;8.452;2024-01-15T01:56:01;-0.60;99.99
13496;DHT22;6820;49.374;8.452;2024-01-15T02:00:04;-0.59;99.99
13496;DHT22;6820;49.374;8.452;2024-01-15T02:04:14;-0.56;99.99
13496;DHT22;6820;49.374;8.452;2024-01-15T02:08:22;-0.56;99.99
13496;DHT22;6820;49.374;8.452;2024-01-15T02:12:24;-0.53;99.99
13496;DHT22;6820;49.374;8.452;2024-01-15T02:16:26;-0.53;99.99
13496;DHT22;6820;49.374;8.452;2024-01-15T02:20:28;-0.50;99.99
13496;DHT22;6820;49.374;8.452;2024-01-15T02:24:30;-0.50;99.99
13496;DHT22;6820;49.374;8.452;2024-01-15T02:28:32;-0.52;99.99
13496;DHT22;6820;49.374;8.452;2024-01-15T02:32:34;-0.50;99.99
13496;DHT22;6820;49.374;8.452;2024-01-15T02:36:36;-0.47;99.99
13496;DHT22;6820;49.374;8.452;2024-01-15T02:40:38;-0.47;99.99
13496;DHT22;6820;49.374;8.452;2024-01-15T02:44:39;-0.49;99.99
13496;DHT22;6820;49.374;8.452;2024-01-15T02:48:41;-0.45;99.99
13496;DHT22;6820;49.374;8.452;2024-01-15T02:52:43;-0.44;99.99
13496;DHT22;6820;49.374;8.452;2024-01-15T02:56:45;-0.42;99.99
13496;DHT22;6820;49.374;8.452;2024-01-15T03:00:46;-0.44;99.99
13496;DHT22;6820;49.374;8.452;2024-01-15T03:04:48;-0.39;99.99
13496;DHT22;6820;49.374;8.452;2024-01-15T03:08:50;-0.47;99.99
13496;DHT22;6820;49.374;8.452;2024-01-15T03:12:51;-0.44;99.99
13496;DHT22;6820;49.374;8.452;2024-01-15T03:16:53;-0.44;99.99
13496;DHT22;6820;49.374;8.452;2024-01-15T03:20:55;-0.44;99.99
13496;DHT22;6820;49.374;8.452;2024-01-15T03:24:57;-0.42;99.99
13496;DHT22;6820;49.374;8.452;2024-01-15T03:28:59;-0.41;99.99
13496;DHT22;6820;49.374;8.452;2024-01-15T03:33:00;-0.38;99.99
13496;DHT22;6820;49.374;8.452;2024-01-15T03:37:02;-0.37;99.99
13496;DHT22;6820;49.374;8.452;2024-01-15T03:41:05;-0.38;99.99
13496;DHT22;6820;49.374;8.452;2024-01-15T03:45:06;-0.37;99.99
13496;DHT22;6820;49.374;8.452;2024-01-15T03:49:08;-0.37;99.99
13496;DHT22;6820;49.374;8.452;2024-01-15T03:53:10;-0.35;99.99
13496;DHT22;6820;49.374;8.452;2024-01-15T03:57:12;-0.35;99.99
13496;DHT22;6820;49.374;8.452;2024-01-15T04:01:14;-0.31;99.99
13496;DHT22;6820;49.374;8.452;2024-01-15T04:05:15;-0.37;99.99
13496;DHT22;6820;49.374;8.452;2024-01-15T04:09:17;-0.35;99.99
13496;DHT22;6820;49.374;8.452;2024-01-15T04:13:19;-0.37;99.99
13496;DHT22;6820;49.374;8.452;2024-01-15T04:17:21;-0.38;99.99
13496;DHT22;6820;49.374;8.452;2024-01-15T04:21:23;-0.34;99.99
13496;DHT22;6820;49.374;8.452;2024-01-15T04:25:25;-0.34;99.99
13496;DHT22;6820;49.374;8.452;2024-01-15T04:29:26;-0.34;99.99
13496;DHT22;6820;49.374;8.452;2024-01-15T04:33:28;-0.31;99.99
13496;DHT22;6820;49.374;8.452;2024-01-15T04:37:30;-0.32;99.99
13496;DHT22;6820;49.374;8.452;2024-01-15T04:41:32;-0.31;99.99
13496;DHT22;6820;49.374;8.452;2024-01-15T04:45:33;-0.32;99.99
13496;DHT22;6820;49.374;8.452;2024-01-15T04:49:35;-0.31;99.99
13496;DHT22;6820;49.374;8.452;2024-01-15T04:53:37;-0.35;99.99
13496;DHT22;6820;49.374;8.452;2024-01-15T04:57:38;-0.32;99.99
13496;DHT22;6820;49.374;8.452;2024-01-15T05:01:40;-0.31;99.99
13496;DHT22;6820;49.374;8.452;2024-01-15T05:05:42;-0.32;99.99
13496;DHT22;6820;49.374;8.452;2024-01-15T05:09:44;-0.31;99.99
13496;DHT22;6820;49.374;8.452;2024-01-15T05:13:45;-0.31;99.99
13496;DHT22;6820;49.374;8.452;2024-01-15T05:17:47;-0.31;99.99
13496;DHT22;6820;49.374;8.452;2024-01-15T05:21:49;-0.27;99.99
13496;DHT22;6820;49.374;8.452;2024-01-15T05:25:51;-0.27;99.99
13496;DHT22;6820;49.374;8.452;2024-01-15T05:29:53;-0.27;99.99
13496;DHT22;6820;49.374;8.452;2024-01-15T05:33:54;-0.24;99.99
13496;DHT22;6820;49.374;8.452;2024-01-15T05:37:56;-0.24;99.99
13496;DHT22;6820;49.374;8.452;2024-01-15T05:41:58;-0.23;99.99
13496;DHT22;6820;49.374;8.452;2024-01-15T05:46:00;-0.23;99.99
13496;DHT22;6820;49.374;8.452;2024-01-15T05:50:02;-0.20;99.99
13496;DHT22;6820;49.374;8.452;2024-01-15T05:54:04;-0.19;99.99
13496;DHT22;6820;49.374;8.452;2024-01-15T05:58:06;-0.19;99.99
13496;DHT22;6820;49.374;8.452;2024-01-15T06:02:08;-0.17;99.99
13496;DHT22;6820;49.374;8.452;2024-01-15T06:06:10;-0.16;99.99
13496;DHT22;6820;49.374;8.452;2024-01-15T06:10:12;-0.14;99.99
13496;DHT22;6820;49.374;8.452;2024-01-15T06:14:14;-0.13;99.99
13496;DHT22;6820;49.374;8.452;2024-01-15T06:18:15;-0.13;99.99
13496;DHT22;6820;49.374;8.452;2024-01-15T06:22:17;-0.09;99.99
13496;DHT22;6820;49.374;8.452;2024-01-15T06:26:19;-0.08;99.99
13496;DHT22;6820;49.374;8.452;2024-01-15T06:30:21;-0.06;99.99
13496;DHT22;6820;49.374;8.452;2024-01-15T06:34:22;-0.05;99.99
13496;DHT22;6820;49.374;8.452;2024-01-15T06:38:24;-0.03;99.99
13496;DHT22;6820;49.374;8.452;2024-01-15T06:42:26;-0.01;99.99
13496;DHT22;6820;49.374;8.452;2024-01-15T06:46:28;0.02;99.99
13496;DHT22;6820;49.374;8.452;2024-01-15T06:50:29;0.02;99.99
13496;DHT22;6820;49.374;8.452;2024-01-15T06:54:31;0.04;99.99
13496;DHT22;6820;49.374;8.452;2024-01-15T06:58:33;0.05;99.99
13496;DHT22;6820;49.374;8.452;2024-01-15T07:02:35;0.07;99.99
13496;DHT22;6820;49.374;8.452;2024-01-15T07:06:36;0.07;99.99
13496;DHT22;6820;49.374;8.452;2024-01-15T07:10:39;0.07;99.99
13496;DHT22;6820;49.374;8.452;2024-01-15T07:14:40;0.05;99.99
13496;DHT22;6820;49.374;8.452;2024-01-15T07:18:42;0.08;99.99
13496;DHT22;6820;49.374;8.452;2024-01-15T07:22:44;0.12;99.99
13496;DHT22;6820;49.374;8.452;2024-01-15T07:26:46;0.15;99.99
13496;DHT22;6820;49.374;8.452;2024-01-15T07:30:48;0.19;99.99
13496;DHT22;6820;49.374;8.452;2024-01-15T07:34:50;0.23;99.99
13496;DHT22;6820;49.374;8.452;2024-01-15T07:38:51;0.26;99.99
13496;DHT22;6820;49.374;8.452;2024-01-15T07:42:53;0.30;99.99
13496;DHT22;6820;49.374;8.452;2024-01-15T07:46:55;0.31;99.99
13496;DHT22;6820;49.374;8.452;2024-01-15T07:50:57;0.34;99.99
13496;DHT22;6820;49.374;8.452;2024-01-15T07:54:58;0.35;99.99
13496;DHT22;6820;49.374;8.452;2024-01-15T07:59:05;0.37;99.99
13496;DHT22;6820;49.374;8.452;2024-01-15T08:03:06;0.37;99.99
13496;DHT22;6820;49.374;8.452;2024-01-15T08:07:08;0.40;99.99
13496;DHT22;6820;49.374;8.452;2024-01-15T08:11:10;0.43;99.99
13496;DHT22;6820;49.374;8.452;2024-01-15T08:15:12;0.48;99.99
13496;DHT22;6820;49.374;8.452;2024-01-15T08:19:14;0.51;99.99
13496;DHT22;6820;49.374;8.452;2024-01-15T08:23:16;0.52;99.99
13496;DHT22;6820;49.374;8.452;2024-01-15T08:27:18;0.56;99.99
13496;DHT22;6820;49.374;8.452;2024-01-15T08:31:21;0.56;99.99
13496;DHT22;6820;49.374;8.452;2024-01-15T08:35:23;0.62;99.99
13496;DHT22;6820;49.374;8.452;2024-01-15T08:39:26;0.67;99.99
13496;DHT22;6820;49.374;8.452;2024-01-15T08:43:28;0.64;99.99
13496;DHT22;6820;49.374;8.452;2024-01-15T08:47:31;0.72;99.99
13496;DHT22;6820;49.374;8.452;2024-01-15T08:51:33;0.75;99.99
13496;DHT22;6820;49.374;8.452;2024-01-15T08:55:35;0.80;99.99
13496;DHT22;6820;49.374;8.452;2024-01-15T08:59:36;0.81;99.99
13496;DHT22;6820;49.374;8.452;2024-01-15T09:03:40;0.84;99.99
13496;DHT22;6820;49.374;8.452;2024-01-15T09:07:45;0.90;99.99
13496;DHT22;6820;49.374;8.452;2024-01-15T09:11:47;0.95;99.99
13496;DHT22;6820;49.374;8.452;2024-01-15T09:15:49;1.00;99.99
13496;DHT22;6820;49.374;8.452;2024-01-15T09:19:51;1.02;99.99
13496;DHT22;6820;49.374;8.452;2024-01-15T09:23:52;1.06;99.99
13496;DHT22;6820;49.374;8.452;2024-01-15T09:27:54;1.07;99.99
13496;DHT22;6820;49.374;8.452;2024-01-15T09:31:56;1.10;99.99
13496;DHT22;6820;49.374;8.452;2024-01-15T09:36:02;1.13;99.99
13496;DHT22;6820;49.374;8.452;2024-01-15T09:40:08;1.18;99.99
13496;DHT22;6820;49.374;8.452;2024-01-15T09:44:13;1.25;99.99
13496;DHT22;6820;49.374;8.452;2024-01-15T09:48:15;1.31;99.99
13496;DHT22;6820;49.374;8.452;2024-01-15T09:52:17;1.34;99.99
13496;DHT22;6820;49.374;8.452;2024-01-15T09:56:20;1.34;99.99
13496;DHT22;6820;49.374;8.452;2024-01-15T10:00:22;1.36;99.99
13496;DHT22;6820;49.374;8.452;2024-01-15T10:04:24;1.38;99.99
13496;DHT22;6820;49.374;8.452;2024-01-15T10:08:26;1.39;99.99
13496;DHT22;6820;49.374;8.452;2024-01-15T10:12:28;1.36;99.99
13496;DHT22;6820;49.374;8.452;2024-01-15T10:16:30;1.32;99.99
13496;DHT22;6820;49.374;8.452;2024-01-15T10:20:32;1.28;99.99
13496;DHT22;6820;49.374;8.452;2024-01-15T10:24:35;1.24;99.99
13496;DHT22;6820;49.374;8.452;2024-01-15T10:28:37;1.20;99.99
13496;DHT22;6820;49.374;8.452;2024-01-15T10:32:39;1.18;99.99
13496;DHT22;6820;49.374;8.452;2024-01-15T10:36:45;1.20;99.99
13496;DHT22;6820;49.374;8.452;2024-01-15T10:40:52;1.24;99.99
13496;DHT22;6820;49.374;8.452;2024-01-15T10:44:54;1.24;99.99
13496;DHT22;6820;49.374;8.452;2024-01-15T10:48:57;1.26;99.99
13496;DHT22;6820;49.374;8.452;2024-01-15T10:52:59;1.25;99.99
13496;DHT22;6820;49.374;8.452;2024-01-15T10:57:01;1.26;99.99
13496;DHT22;6820;49.374;8.452;2024-01-15T11:01:04;1.32;99.99
13496;DHT22;6820;49.374;8.452;2024-01-15T11:05:06;1.36;99.99
13496;DHT22;6820;49.374;8.452;2024-01-15T11:09:07;1.39;99.99
13496;DHT22;6820;49.374;8.452;2024-01-15T11:13:20;1.38;99.99
13496;DHT22;6820;49.374;8.452;2024-01-15T11:17:23;1.36;99.99
13496;DHT22;6820;49.374;8.452;2024-01-15T11:21:25;1.42;99.99
13496;DHT22;6820;49.374;8.452;2024-01-15T11:25:34;1.49;99.99
13496;DHT22;6820;49.374;8.452;2024-01-15T11:29:38;1.52;99.99
13496;DHT22;6820;49.374;8.452;2024-01-15T11:33:47;1.53;99.99
13496;DHT22;6820;49.374;8.452;2024-01-15T11:41:56;1.56;99.99
13496;DHT22;6820;49.374;8.452;2024-01-15T11:45:59;1.60;99.99
13496;DHT22;6820;49.374;8.452;2024-01-15T11:50:04;1.64;99.99
13496;DHT22;6820;49.374;8.452;2024-01-15T11:54:07;1.68;99.99
13496;DHT22;6820;49.374;8.452;2024-01-15T11:58:12;1.67;99.99
13496;DHT22;6820;49.374;8.452;2024-01-15T12:02:14;1.67;99.99
13496;DHT22;6820;49.374;8.452;2024-01-15T12:06:15;1.63;99.99
13496;DHT22;6820;49.374;8.452;2024-01-15T12:10:18;1.64;99.99
13496;DHT22;6820;49.374;8.452;2024-01-15T12:14:22;1.70;99.99
13496;DHT22;6820;49.374;8.452;2024-01-15T12:18:23;1.77;99.99
13496;DHT22;6820;49.374;8.452;2024-01-15T12:22:27;1.83;99.99
13496;DHT22;6820;49.374;8.452;2024-01-15T12:26:29;1.85;99.99
13496;DHT22;6820;49.374;8.452;2024-01-15T12:30:33;1.89;99.99
13496;DHT22;6820;49.374;8.452;2024-01-15T12:34:36;2.02;99.99
13496;DHT22;6820;49.374;8.452;2024-01-15T12:38:39;2.11;99.99
13496;DHT22;6820;49.374;8.452;2024-01-15T12:42:41;2.20;99.99
13496;DHT22;6820;49.374;8.452;2024-01-15T12:46:43;2.25;99.99
13496;DHT22;6820;49.374;8.452;2024-01-15T12:50:44;2.33;99.99
13496;DHT22;6820;49.374;8.452;2024-01-15T12:54:50;2.38;99.99
13496;DHT22;6820;49.374;8.452;2024-01-15T12:58:53;2.43;99.99
13496;DHT22;6820;49.374;8.452;2024-01-15T13:02:54;2.44;99.99
13496;DHT22;6820;49.374;8.452;2024-01-15T13:06:58;2.50;99.99
13496;DHT22;6820;49.374;8.452;2024-01-15T13:11:00;2.51;99.99
13496;DHT22;6820;49.374;8.452;2024-01-15T13:15:02;2.56;99.99
13496;DHT22;6820;49.374;8.452;2024-01-15T13:19:05;2.59;99.99
13496;DHT22;6820;49.374;8.452;2024-01-15T13:23:08;2.66;99.99
13496;DHT22;6820;49.374;8.452;2024-01-15T13:27:11;2.79;99.99
13496;DHT22;6820;49.374;8.452;2024-01-15T13:31:13;2.90;99.99
13496;DHT22;6820;49.374;8.452;2024-01-15T13:35:15;2.86;99.99
13496;DHT22;6820;49.374;8.452;2024-01-15T13:39:17;2.80;99.99
13496;DHT22;6820;49.374;8.452;2024-01-15T13:43:21;2.76;99.99
13496;DHT22;6820;49.374;8.452;2024-01-15T13:47:23;2.74;99.99
13496;DHT22;6820;49.374;8.452;2024-01-15T13:51:25;2.68;99.99
13496;DHT22;6820;49.374;8.452;2024-01-15T13:55:27;2.65;99.99
13496;DHT22;6820;49.374;8.452;2024-01-15T13:59:31;2.66;99.99
13496;DHT22;6820;49.374;8.452;2024-01-15T14:03:33;2.68;99.99
13496;DHT22;6820;49.374;8.452;2024-01-15T14:07:35;2.77;99.99
13496;DHT22;6820;49.374;8.452;2024-01-15T14:11:37;2.81;99.99
13496;DHT22;6820;49.374;8.452;2024-01-15T14:15:39;2.80;99.99
13496;DHT22;6820;49.374;8.452;2024-01-15T14:19:41;2.80;99.99
13496;DHT22;6820;49.374;8.452;2024-01-15T14:23:43;2.73;99.99
13496;DHT22;6820;49.374;8.452;2024-01-15T14:27:45;2.66;99.99
13496;DHT22;6820;49.374;8.452;2024-01-15T14:31:46;2.61;99.99
13496;DHT22;6820;49.374;8.452;2024-01-15T14:35:48;2.59;99.99
13496;DHT22;6820;49.374;8.452;2024-01-15T14:39:50;2.58;99.99
13496;DHT22;6820;49.374;8.452;2024-01-15T14:43:52;2.59;99.99
13496;DHT22;6820;49.374;8.452;2024-01-15T14:47:54;2.65;99.99
13496;DHT22;6820;49.374;8.452;2024-01-15T14:51:56;2.66;99.99
13496;DHT22;6820;49.374;8.452;2024-01-15T14:55:58;2.69;99.99
13496;DHT22;6820;49.374;8.452;2024-01-15T14:59:59;2.71;99.99
13496;DHT22;6820;49.374;8.452;2024-01-15T15:04:01;2.65;99.99
13496;DHT22;6820;49.374;8.452;2024-01-15T15:08:03;2.66;99.99
13496;DHT22;6820;49.374;8.452;2024-01-15T15:12:10;2.62;99.99
13496;DHT22;6820;49.374;8.452;2024-01-15T15:16:12;2.55;99.99
13496;DHT22;6820;49.374;8.452;2024-01-15T15:20:15;2.47;99.99
13496;DHT22;6820;49.374;8.452;2024-01-15T15:24:17;2.44;99.99
13496;DHT22;6820;49.374;8.452;2024-01-15T15:28:18;2.43;99.99
13496;DHT22;6820;49.374;8.452;2024-01-15T15:32:20;2.43;99.99
13496;DHT22;6820;49.374;8.452;2024-01-15T15:36:22;2.44;99.99
13496;DHT22;6820;49.374;8.452;2024-01-15T15:40:25;2.41;99.99
13496;DHT22;6820;49.374;8.452;2024-01-15T15:44:26;2.43;99.99
13496;DHT22;6820;49.374;8.452;2024-01-15T15:48:28;2.43;99.99
13496;DHT22;6820;49.374;8.452;2024-01-15T15:52:32;2.41;99.99
13496;DHT22;6820;49.374;8.452;2024-01-15T15:56:33;2.40;99.99
13496;DHT22;6820;49.374;8.452;2024-01-15T16:00:39;2.40;99.99
13496;DHT22;6820;49.374;8.452;2024-01-15T16:04:41;2.43;99.99
13496;DHT22;6820;49.374;8.452;2024-01-15T16:08:43;2.41;99.99
13496;DHT22;6820;49.374;8.452;2024-01-15T16:12:45;2.33;99.99
13496;DHT22;6820;49.374;8.452;2024-01-15T16:16:47;2.30;99.99
13496;DHT22;6820;49.374;8.452;2024-01-15T16:21:09;2.23;99.99
13496;DHT22;6820;49.374;8.452;2024-01-15T16:25:30;2.15;99.99
13496;DHT22;6820;49.374;8.452;2024-01-15T16:29:32;2.09;99.99
13496;DHT22;6820;49.374;8.452;2024-01-15T16:33:35;2.02;99.99
13496;DHT22;6820;49.374;8.452;2024-01-15T16:37:37;1.95;99.99
13496;DHT22;6820;49.374;8.452;2024-01-15T16:41:39;1.89;99.99
13496;DHT22;6820;49.374;8.452;2024-01-15T16:45:41;1.89;99.99
13496;DHT22;6820;49.374;8.452;2024-01-15T16:49:43;1.86;99.99
13496;DHT22;6820;49.374;8.452;2024-01-15T16:53:44;1.82;99.99
13496;DHT22;6820;49.374;8.452;2024-01-15T16:57:47;1.77;99.99
13496;DHT22;6820;49.374;8.452;2024-01-15T17:01:48;1.74;99.99
13496;DHT22;6820;49.374;8.452;2024-01-15T17:05:50;1.72;99.99
13496;DHT22;6820;49.374;8.452;2024-01-15T17:09:52;1.74;99.99
13496;DHT22;6820;49.374;8.452;2024-01-15T17:13:54;1.79;99.99
13496;DHT22;6820;49.374;8.452;2024-01-15T17:17:56;1.86;99.99
13496;DHT22;6820;49.374;8.452;2024-01-15T17:21:58;1.89;99.99
13496;DHT22;6820;49.374;8.452;2024-01-15T17:26:01;1.86;99.99
13496;DHT22;6820;49.374;8.452;2024-01-15T17:30:04;1.95;99.99
13496;DHT22;6820;49.374;8.452;2024-01-15T17:34:08;1.95;99.99
13496;DHT22;6820;49.374;8.452;2024-01-15T17:38:11;1.98;99.99
13496;DHT22;6820;49.374;8.452;2024-01-15T17:42:13;2.00;99.99
13496;DHT22;6820;49.374;8.452;2024-01-15T17:46:15;2.02;99.99
13496;DHT22;6820;49.374;8.452;2024-01-15T17:50:17;2.04;99.99
13496;DHT22;6820;49.374;8.452;2024-01-15T17:54:20;2.04;99.99
13496;DHT22;6820;49.374;8.452;2024-01-15T17:58:22;2.01;99.99
13496;DHT22;6820;49.374;8.452;2024-01-15T18:02:24;2.02;99.99
13496;DHT22;6820;49.374;8.452;2024-01-15T18:06:26;2.04;99.99
13496;DHT22;6820;49.374;8.452;2024-01-15T18:10:27;2.02;99.99
13496;DHT22;6820;49.374;8.452;2024-01-15T18:14:29;2.00;99.99
13496;DHT22;6820;49.374;8.452;2024-01-15T18:18:31;1.90;99.99
13496;DHT22;6820;49.374;8.452;2024-01-15T18:22:33;1.83;99.99
13496;DHT22;6820;49.374;8.452;2024-01-15T18:26:35;1.75;99.99
13496;DHT22;6820;49.374;8.452;2024-01-15T18:30:37;1.67;99.99
13496;DHT22;6820;49.374;8.452;2024-01-15T18:34:39;1.61;99.99
13496;DHT22;6820;49.374;8.452;2024-01-15T18:38:44;1.54;99.99
13496;DHT22;6820;49.374;8.452;2024-01-15T18:42:46;1.50;99.99
13496;DHT22;6820;49.374;8.452;2024-01-15T18:46:47;1.46;99.99
13496;DHT22;6820;49.374;8.452;2024-01-15T18:50:49;1.42;99.99
13496;DHT22;6820;49.374;8.452;2024-01-15T18:54:52;1.43;99.99
13496;DHT22;6820;49.374;8.452;2024-01-15T18:58:55;1.42;99.99
13496;DHT22;6820;49.374;8.452;2024-01-15T19:02:58;1.43;99.99
13496;DHT22;6820;49.374;8.452;2024-01-15T19:07:00;1.38;99.99
13496;DHT22;6820;49.374;8.452;2024-01-15T19:11:02;1.34;99.99
13496;DHT22;6820;49.374;8.452;2024-01-15T19:15:05;1.32;99.99
13496;DHT22;6820;49.374;8.452;2024-01-15T19:19:08;1.32;99.99
13496;DHT22;6820;49.374;8.452;2024-01-15T19:23:09;1.31;99.99
13496;DHT22;6820;49.374;8.452;2024-01-15T19:27:11;1.31;99.99
13496;DHT22;6820;49.374;8.452;2024-01-15T19:31:13;1.34;99.99
13496;DHT22;6820;49.374;8.452;2024-01-15T19:35:15;1.35;99.99
13496;DHT22;6820;49.374;8.452;2024-01-15T19:39:17;1.38;99.99
13496;DHT22;6820;49.374;8.452;2024-01-15T19:43:20;1.39;99.99
13496;DHT22;6820;49.374;8.452;2024-01-15T19:47:23;1.42;99.99
13496;DHT22;6820;49.374;8.452;2024-01-15T19:51:26;1.46;99.99
13496;DHT22;6820;49.374;8.452;2024-01-15T19:55:28;1.42;99.99
13496;DHT22;6820;49.374;8.452;2024-01-15T19:59:39;1.42;99.99
13496;DHT22;6820;49.374;8.452;2024-01-15T20:03:41;1.43;99.99
13496;DHT22;6820;49.374;8.452;2024-01-15T20:07:45;1.42;99.99
13496;DHT22;6820;49.374;8.452;2024-01-15T20:11:47;1.39;99.99
13496;DHT22;6820;49.374;8.452;2024-01-15T20:15:49;1.36;99.99
13496;DHT22;6820;49.374;8.452;2024-01-15T20:19:54;1.36;99.99
13496;DHT22;6820;49.374;8.452;2024-01-15T20:23:59;1.34;99.99
13496;DHT22;6820;49.374;8.452;2024-01-15T20:28:05;1.34;99.99
13496;DHT22;6820;49.374;8.452;2024-01-15T20:32:08;1.35;99.99
13496;DHT22;6820;49.374;8.452;2024-01-15T20:36:10;1.34;99.99
13496;DHT22;6820;49.374;8.452;2024-01-15T20:40:14;1.32;99.99
13496;DHT22;6820;49.374;8.452;2024-01-15T20:44:16;1.26;99.99
13496;DHT22;6820;49.374;8.452;2024-01-15T20:48:22;1.21;99.99
13496;DHT22;6820;49.374;8.452;2024-01-15T20:52:25;1.16;99.99
13496;DHT22;6820;49.374;8.452;2024-01-15T20:56:27;1.13;99.99
13496;DHT22;6820;49.374;8.452;2024-01-15T21:00:29;1.11;99.99
13496;DHT22;6820;49.374;8.452;2024-01-15T21:04:33;1.10;99.99
13496;DHT22;6820;49.374;8.452;2024-01-15T21:08:35;1.08;99.99
13496;DHT22;6820;49.374;8.452;2024-01-15T21:12:37;1.04;99.99
13496;DHT22;6820;49.374;8.452;2024-01-15T21:16:39;0.99;99.99
13496;DHT22;6820;49.374;8.452;2024-01-15T21:20:43;0.95;99.99
13496;DHT22;6820;49.374;8.452;2024-01-15T21:24:45;0.92;99.99
13496;DHT22;6820;49.374;8.452;2024-01-15T21:28:47;0.88;99.99
13496;DHT22;6820;49.374;8.452;2024-01-15T21:32:51;0.84;99.99
13496;DHT22;6820;49.374;8.452;2024-01-15T21:36:53;0.80;99.99
13496;DHT22;6820;49.374;8.452;2024-01-15T21:40:54;0.77;99.99
13496;DHT22;6820;49.374;8.452;2024-01-15T21:44:56;0.77;99.99
13496;DHT22;6820;49.374;8.452;2024-01-15T21:48:58;0.75;99.99
13496;DHT22;6820;49.374;8.452;2024-01-15T21:53:00;0.71;99.99
13496;DHT22;6820;49.374;8.452;2024-01-15T21:57:01;0.70;99.99
13496;DHT22;6820;49.374;8.452;2024-01-15T22:01:05;0.67;99.99
13496;DHT22;6820;49.374;8.452;2024-01-15T22:05:09;0.63;99.99
13496;DHT22;6820;49.374;8.452;2024-01-15T22:09:11;0.59;99.99
13496;DHT22;6820;49.374;8.452;2024-01-15T22:13:12;0.56;99.99
13496;DHT22;6820;49.374;8.452;2024-01-15T22:17:14;0.51;99.99
13496;DHT22;6820;49.374;8.452;2024-01-15T22:21:15;0.48;99.99
13496;DHT22;6820;49.374;8.452;2024-01-15T22:25:17;0.45;99.99
13496;DHT22;6820;49.374;8.452;2024-01-15T22:29:19;0.43;99.99
13496;DHT22;6820;49.374;8.452;2024-01-15T22:33:20;0.38;99.99
13496;DHT22;6820;49.374;8.452;2024-01-15T22:37:22;0.34;99.99
13496;DHT22;6820;49.374;8.452;2024-01-15T22:41:24;0.30;99.99
13496;DHT22;6820;49.374;8.452;2024-01-15T22:45:25;0.26;99.99
13496;DHT22;6820;49.374;8.452;2024-01-15T22:49:28;0.26;99.99
13496;DHT22;6820;49.374;8.452;2024-01-15T22:53:29;0.26;99.99
13496;DHT22;6820;49.374;8.452;2024-01-15T22:57:31;0.26;99.99
13496;DHT22;6820;49.374;8.452;2024-01-15T23:01:33;0.26;99.99
13496;DHT22;6820;49.374;8.452;2024-01-15T23:05:34;0.26;99.99
13496;DHT22;6820;49.374;8.452;2024-01-15T23:09:37;0.26;99.99
13496;DHT22;6820;49.374;8.452;2024-01-15T23:13:39;0.28;99.99
13496;DHT22;6820;49.374;8.452;2024-01-15T23:17:41;0.30;99.99
13496;DHT22;6820;49.374;8.452;2024-01-15T23:21:45;0.30;99.99
13496;DHT22;6820;49.374;8.452;2024-01-15T23:25:47;0.28;99.99
13496;DHT22;6820;49.374;8.452;2024-01-15T23:29:48;0.30;99.99
13496;DHT22;6820;49.374;8.452;2024-01-15T23:33:50;0.26;99.99
13496;DHT22;6820;49.374;8.452;2024-01-15T23:37:52;0.25;99.99
13496;DHT22;6820;49.374;8.452;2024-01-15T23:41:53;0.22;99.99
13496;DHT22;6820;49.374;8.452;2024-01-15T23:45:55;0.17;99.99
13496;DHT22;6820;49.374;8.452;2024-01-15T23:50:10;0.16;99.99
13496;DHT22;6820;49.374;8.452;2024-01-15T23:54:12;0.15;99.99
13496;DHT22;6820;49.374;8.452;2024-01-15T23:58:13;0.10;99.99
